• Join FlightAware (Why Join?)
  • Login
  • US Flag GB Flag 
22:36 EDT


 

Airport Tracker/Info


-or-


 

Live Flight TrackerFlight Track Log ✈ N860BA ✈ 31-Aug-2013 ✈ KOAK - KPHL

Flight Track Log - Related Links

Times and Time Zones

All times are in EDT time to prevent confusion due to time zone crossing. See the N860BA flight status page for this flight to view local times or setup timezone preferences in your user account.

Time Position Orientation Groundspeed Altitude Reporting Facility
EDT Latitude Longitude Course Direction KTS MPH feet Rate Location/Type
08:05 37.7333 -122.2667 180° South 178 205 1,100  Level Northern Cal TRACON
08:06 37.7000 -122.2667 180° South 211 243 2,800 1,920 Climbing Northern Cal TRACON
08:07 37.6500 -122.2167 142° Southeast 247 284 5,000 2,220 Climbing Northern Cal TRACON
08:08 37.6236 -122.1717 127° Southeast 254 292 6,500 2,160 Climbing Oakland Center
08:09 37.6553 -122.0861 65° Northeast 268 308 8,600 1,920 Climbing Oakland Center
08:10 37.6931 -121.9931 63° Northeast 292 336 10,400 1,800 Climbing Oakland Center
08:11 37.7317 -121.8903 65° Northeast 314 361 12,200 1,680 Climbing Oakland Center
08:12 37.7744 -121.7817 63° Northeast 338 389 13,900 1,680 Climbing Oakland Center
08:13 37.8192 -121.6697 63° Northeast 352 405 15,700 1,740 Climbing Oakland Center
08:14 37.8622 -121.5556 64° Northeast 360 414 17,400 1,620 Climbing Oakland Center
08:15 37.9067 -121.4439 63° Northeast 366 421 19,000 1,620 Climbing Oakland Center
08:16 37.9517 -121.3278 64° Northeast 368 423 20,700 1,620 Climbing Oakland Center
08:17 37.9958 -121.2111 64° Northeast 369 425 22,300 1,020 Climbing Oakland Center
08:18 38.0417 -121.0911 64° Northeast 376 433 22,800 540 Climbing Oakland Center
08:19 38.0811 -120.9550 70° East 407 468 23,500 600 Climbing Oakland Center
08:20 38.0883 -120.8061 86° East 424 488 24,100 540 Climbing Oakland Center
08:21 38.0958 -120.6528 86° East 433 498 24,600 540 Climbing Oakland Center
08:22 38.1036 -120.4922 86° East 449 517 25,200 540 Climbing Oakland Center
08:23 38.1122 -120.3292 86° East 461 531 25,700 480 Climbing Oakland Center
08:24 38.1189 -120.1644 87° East 466 536 26,200 540 Climbing Oakland Center
08:25 38.1283 -119.9958 86° East 476 548 26,800 540 Climbing Oakland Center
08:26 38.1369 -119.7936 87° East 480 552 27,400 540 Climbing Oakland Center
08:27 38.1419 -119.6247 88° East 480 552 27,900 480 Climbing Oakland Center
08:28 38.1519 -119.4600 86° East 485 558 28,400 480 Climbing Oakland Center
08:29 38.1578 -119.2875 87° East 489 563 28,900 480 Climbing Oakland Center
08:30 38.1656 -119.1161 87° East 488 562 29,400 480 Climbing Oakland Center
08:31 38.1717 -118.9447 87° East 489 563 29,900 480 Climbing Oakland Center
08:32 38.1781 -118.7736 87° East 487 560 30,400 480 Climbing Oakland Center
08:33 38.1839 -118.6014 87° East 489 563 30,900 480 Climbing Oakland Center
08:34 38.1897 -118.4322 87° East 482 555 31,400 480 Climbing Oakland Center
08:35 38.1956 -118.2628 87° East 482 555 31,900 480 Climbing Oakland Center
08:36 38.2003 -118.0925 88° East 484 557 32,400 480 Climbing Oakland Center
08:37 38.2050 -117.9228 88° East 481 554 32,900 420 Climbing Oakland Center
08:38 38.2097 -117.7539 88° East 479 551 33,300 300 Climbing Oakland Center
08:39 38.2139 -117.5831 88° East 481 554 33,600 300 Climbing Oakland Center
08:40 38.2181 -117.4161 88° East 481 554 34,000 300 Climbing Oakland Center
08:41 38.2225 -117.2447 88° East 484 557 34,300 300 Climbing Oakland Center
08:42 38.2269 -117.0561 88° East 489 563 34,600 300 Climbing Oakland Center
08:43 38.2294 -116.8842 89° East 484 557 34,900 240 Climbing Oakland Center
08:44 38.2325 -116.7478 88° East 482 555 35,200 240 Climbing Oakland Center
08:45 38.2350 -116.5772 89° East 482 555 35,500 300 Climbing Oakland Center
08:46 38.2378 -116.4078 89° East 480 552 35,800 300 Climbing Oakland Center
08:47 38.2400 -116.2378 89° East 480 552 36,100 180 Climbing Oakland Center
08:48 38.2419 -116.0686 89° East 480 552 36,200 180 Climbing Oakland Center
08:49 38.2419 -115.8650 90° East 479 551 36,500 240 Climbing Salt Lake Center
08:50 38.2436 -115.6622 89° East 478 550 36,800 240 Climbing Salt Lake Center
08:51 38.2450 -115.4931 89° East 478 550 37,000 60 Climbing Salt Lake Center
08:52 38.2456 -115.3233 90° East 478 550 37,000  Level Salt Lake Center
08:53 38.2475 -115.1650 89° East 480 552 37,000  Level Salt Lake Center
08:54 38.2483 -114.9944 90° East 482 555 37,000  Level Salt Lake Center
08:55 38.2511 -114.8239 89° East 481 554 37,000  Level Salt Lake Center
08:56 38.2511 -114.6531 90° East 484 557 37,000  Level Salt Lake Center
08:57 38.2500 -114.4831 90° East 482 555 37,000  Level Salt Lake Center
08:58 38.2569 -114.3131 87° East 481 554 37,000  Level Salt Lake Center
08:59 38.2731 -114.1442 83° East 480 552 37,000  Level Salt Lake Center
09:00 38.2864 -113.9756 84° East 480 552 37,000  Level Salt Lake Center
09:01 38.3006 -113.8064 84° East 481 554 37,000  Level Salt Lake Center
09:02 38.3136 -113.6369 84° East 481 554 37,000  Level Salt Lake Center
09:03 38.3269 -113.4681 84° East 480 552 37,000  Level Salt Lake Center
09:04 38.3400 -113.2986 84° East 479 551 37,000  Level Salt Lake Center
09:05 38.3536 -113.1278 84° East 482 555 37,000  Level Salt Lake Center
09:06 38.3708 -112.9597 83° East 480 552 37,000  Level Salt Lake Center
09:07 38.4028 -112.7931 76° East 482 555 37,000  Level Salt Lake Center
09:08 38.4336 -112.6272 77° East 480 552 37,000  Level Salt Lake Center
09:09 38.4644 -112.4600 77° East 483 556 37,000  Level Salt Lake Center
09:10 38.4936 -112.2914 77° East 485 558 37,000  Level Salt Lake Center
09:11 38.5239 -112.1250 77° East 482 555 37,000  Level Salt Lake Center
09:12 38.5594 -111.9242 77° East 483 556 37,000  Level Salt Lake Center
09:13 38.5889 -111.7575 77° East 481 554 37,000  Level Salt Lake Center
09:14 38.6161 -111.5897 78° East 482 555 37,000  Level Salt Lake Center
09:15 38.6458 -111.4231 77° East 482 555 37,000  Level Salt Lake Center
09:16 38.6736 -111.2542 78° East 484 557 37,000  Level Salt Lake Center
09:17 38.7028 -111.0881 77° East 481 554 37,000  Level Salt Lake Center
09:18 38.7286 -110.9250 78° East 482 555 37,000  Level Salt Lake Center
09:19 38.7556 -110.7639 78° East 482 555 37,000  Level Salt Lake Center
09:20 38.7867 -110.5761 78° East 483 556 37,000  Level Salt Lake Center
09:21 38.8103 -110.4136 79° East 483 556 37,000  Level Salt Lake Center
09:22 38.8344 -110.2519 79° East 484 557 37,000  Level Salt Lake Center
09:23 38.8614 -110.0608 80° East 487 560 37,000  Level Salt Lake Center
09:24 38.8844 -109.8992 80° East 485 558 37,000  Level Salt Lake Center
09:25 38.9117 -109.7089 80° East 486 559 37,000  Level Salt Lake Center
09:26 38.9347 -109.5447 80° East 488 562 37,000  Level Salt Lake Center
09:27 38.9567 -109.3825 80° East 486 559 37,000  Level Salt Lake Center
09:28 38.9831 -109.1919 80° East 487 560 37,000  Level Salt Lake Center
09:29 39.0050 -109.0286 80° East 487 560 37,000  Level Salt Lake Center
09:30 39.0261 -108.8642 81° East 490 564 37,000  Level Salt Lake Center
09:32 39.0522 -108.6733 80° East 489 563 37,000  Level Salt Lake Center
09:33 39.0731 -108.5100 81° East 488 562 37,000  Level Salt Lake Center
09:34 39.1028 -108.2861 80° East 496 571 37,000  Level Denver Center
09:35 39.1247 -108.1217 80° East 489 563 37,000  Level Denver Center
09:36 39.1481 -107.9306 81° East 485 558 37,000  Level Denver Center
09:37 39.1678 -107.7667 81° East 485 558 37,000  Level Denver Center
09:38 39.1925 -107.5736 81° East 490 564 37,000  Level Denver Center
09:39 39.2125 -107.4089 81° East 488 562 37,000  Level Denver Center
09:40 39.2311 -107.2447 82° East 485 558 37,000  Level Denver Center
09:41 39.2539 -107.0528 81° East 485 558 37,000  Level Denver Center
09:42 39.2728 -106.8892 81° East 483 556 37,000  Level Denver Center
09:43 39.2931 -106.7253 81° East 480 552 37,000  Level Denver Center
09:44 39.3125 -106.5364 82° East 478 550 37,000  Level Denver Center
09:45 39.3303 -106.3733 82° East 479 551 37,000  Level Denver Center
09:46 39.3489 -106.2092 82° East 481 554 37,000  Level Denver Center
09:47 39.3681 -106.0372 82° East 478 550 37,000  Level Denver Center
09:48 39.3869 -105.8672 82° East 480 552 37,000  Level Denver Center
09:49 39.4050 -105.6964 82° East 480 552 37,000  Level Denver Center
09:50 39.4256 -105.5231 81° East 490 564 37,000  Level Denver Center
09:51 39.4414 -105.3533 83° East 477 549 37,000  Level Denver Center
09:52 39.4619 -105.1481 83° East 483 556 37,000  Level Denver Center
09:53 39.4786 -104.9789 83° East 477 549 37,000  Level Denver Center
09:54 39.4978 -104.7750 83° East 481 554 37,000  Level Denver Center
09:55 39.5122 -104.6061 84° East 492 566 37,000  Level Denver Center
09:56 39.5297 -104.4353 82° East 492 566 37,000  Level Denver Center
09:57 39.5464 -104.2658 83° East 480 552 37,000  Level Denver Center
09:58 39.5647 -104.0578 83° East 486 559 37,000  Level Denver Center
09:59 39.5800 -103.8839 83° East 489 563 37,000  Level Denver Center
10:00 39.5958 -103.7139 83° East 473 544 37,000  Level Denver Center
10:01 39.6119 -103.5414 83° East 481 554 37,000  Level Denver Center
10:02 39.6258 -103.3675 84° East 485 558 37,000  Level Denver Center
10:03 39.6411 -103.1931 83° East 488 562 37,000  Level Denver Center
10:04 39.6553 -103.0181 84° East 489 563 37,000  Level Denver Center
10:06 39.6700 -102.8461 84° East 483 556 37,000  Level Denver Center
10:07 39.6844 -102.6581 84° East 489 563 37,000  Level Denver Center
10:08 39.6994 -102.4631 84° East 487 560 37,000  Level Denver Center
10:09 39.7117 -102.2953 85° East 487 560 37,000  Level Denver Center
10:10 39.7242 -102.1292 84° East 484 557 37,000  Level Denver Center
10:11 39.7383 -101.9333 85° East 487 560 37,000  Level Denver Center
10:12 39.7506 -101.7650 85° East 491 565 37,000  Level Denver Center
10:13 39.7644 -101.5697 85° East 487 560 37,000  Level Denver Center
10:14 39.7758 -101.4014 85° East 489 563 37,000  Level Denver Center
10:15 39.7897 -101.2031 85° East 494 568 37,000  Level Denver Center
10:16 39.8000 -101.0339 85° East 493 567 37,000  Level Denver Center
10:17 39.8111 -100.8656 85° East 491 565 37,000  Level Denver Center
10:18 39.8225 -100.6667 86° East 494 568 37,000  Level Denver Center
10:19 39.8322 -100.4983 86° East 492 566 37,000  Level Denver Center
10:20 39.8447 -100.3019 85° East 490 564 37,000  Level Denver Center
10:21 39.8553 -100.1225 86° East 493 567 37,000  Level Denver Center
10:22 39.8650 -99.9467 86° East 490 564 37,000  Level Denver Center
10:23 39.8736 -99.7683 86° East 494 568 37,000  Level Denver Center
10:24 39.8839 -99.5906 86° East 494 568 37,000  Level Denver Center
10:25 39.8944 -99.3775 86° East 494 568 37,000  Level Denver Center
10:26 39.9036 -99.2000 86° East 493 567 37,000  Level Denver Center
10:27 39.9119 -99.0231 86° East 494 568 37,000  Level Minneapolis Center
10:28 39.9203 -98.8447 86° East 495 570 37,000  Level Minneapolis Center
10:29 39.9283 -98.6664 87° East 495 570 37,000  Level Minneapolis Center
10:30 39.9372 -98.4511 87° East 497 572 37,000  Level Minneapolis Center
10:31 39.9442 -98.2744 87° East 494 568 37,000  Level Minneapolis Center
10:32 39.9511 -98.0947 87° East 496 571 37,000  Level Minneapolis Center
10:33 39.9575 -97.9161 87° East 496 571 37,000  Level Minneapolis Center
10:34 39.9644 -97.7350 87° East 499 574 37,000  Level Minneapolis Center
10:35 39.9708 -97.5550 87° East 500 575 37,000  Level Minneapolis Center
10:36 39.9764 -97.3753 88° East 498 573 37,000  Level Minneapolis Center
10:37 39.9822 -97.1792 88° East 499 574 37,000  Level Minneapolis Center
10:38 39.9889 -96.9997 87° East 498 573 37,000  Level Minneapolis Center
10:39 39.9933 -96.8192 88° East 500 575 37,000  Level Minneapolis Center
10:41 39.9992 -96.6022 88° East 500 575 37,000  Level Minneapolis Center
10:42 40.0039 -96.4219 88° East 500 575 37,000  Level Minneapolis Center
10:42 40.0078 -96.2892 88° East 500 575 37,000  Level Kansas City Center
10:43 40.0125 -96.1239 88° East 498 573 37,000  Level Kansas City Center
10:44 40.0167 -95.9214 88° East 498 573 37,000  Level Kansas City Center
10:45 40.0206 -95.7464 88° East 502 578 37,000  Level Kansas City Center
10:46 40.0231 -95.5717 89° East 502 578 37,000  Level Kansas City Center
10:47 40.0264 -95.3681 89° East 501 577 37,000  Level Kansas City Center
10:48 40.0289 -95.1953 89° East 497 572 37,000  Level Kansas City Center
10:49 40.0314 -94.9939 89° East 496 571 37,000  Level Kansas City Center
10:50 40.0331 -94.8203 89° East 497 572 37,000  Level Kansas City Center
10:52 40.0353 -94.6178 89° East 498 573 37,000  Level Kansas City Center
10:53 40.0369 -94.4444 89° East 497 572 37,000  Level Kansas City Center
10:54 40.0372 -94.2706 90° East 499 574 37,000  Level Kansas City Center
10:55 40.0386 -94.0678 89° East 497 572 37,000  Level Kansas City Center
10:56 40.0403 -93.8886 89° East 499 574 37,000  Level Kansas City Center
10:57 40.0522 -93.7119 85° East 497 572 37,000  Level Kansas City Center
10:58 40.0644 -93.5356 85° East 494 568 37,000  Level Kansas City Center
10:59 40.0750 -93.3572 86° East 496 571 37,000  Level Kansas City Center
11:00 40.0872 -93.1453 86° East 495 570 37,000  Level Kansas City Center
11:01 40.0992 -92.9833 84° East 492 566 37,000  Level Kansas City Center
11:02 40.1097 -92.7839 86° East 493 567 37,000  Level Kansas City Center
11:03 40.1186 -92.6117 86° East 495 570 37,000  Level Kansas City Center
11:04 40.1297 -92.4103 86° East 498 573 37,000  Level Kansas City Center
11:05 40.1400 -92.2344 86° East 495 570 37,000  Level Kansas City Center
11:06 40.1519 -92.0542 85° East 500 575 37,000  Level Kansas City Center
11:07 40.1594 -91.8794 87° East 494 568 37,000  Level Kansas City Center
11:08 40.1689 -91.6647 87° East 498 573 37,000  Level Kansas City Center
11:09 40.1778 -91.4861 86° East 497 572 37,000  Level Kansas City Center
11:10 40.1861 -91.3083 86° East 497 572 37,000  Level Kansas City Center
11:11 40.1942 -91.1306 87° East 496 571 37,000  Level Kansas City Center
11:12 40.2011 -90.9425 87° East 496 571 37,000  Level Kansas City Center
11:13 40.2081 -90.7625 87° East 496 571 37,000  Level Kansas City Center
11:14 40.2175 -90.5842 86° East 495 570 37,000  Level Kansas City Center
11:15 40.2564 -90.3794 76° East 486 559 37,000  Level Kansas City Center
11:16 40.2692 -90.2719 81° East 491 565 37,000  Level Chicago Center
11:17 40.2878 -90.0947 82° East 493 567 37,000  Level Chicago Center
11:18 40.3089 -89.9156 81° East 494 568 37,000  Level Chicago Center
11:19 40.3283 -89.7417 82° East 497 572 37,000  Level Chicago Center
11:20 40.3489 -89.5661 81° East 495 570 37,000  Level Chicago Center
11:21 40.3567 -89.3511 87° East 503 579 37,000  Level Chicago Center
11:22 40.3581 -89.1742 89° East 492 566 37,000  Level Chicago Center
11:23 40.3597 -88.9969 89° East 490 564 37,000  Level Chicago Center
11:24 40.3611 -88.8183 89° East 491 565 37,000  Level Chicago Center
11:25 40.3631 -88.6397 89° East 491 565 37,000  Level Chicago Center
11:26 40.3622 -88.4617 90° East 489 563 37,000  Level Chicago Center
11:27 40.3622 -88.2492 90° East 489 563 37,000  Level Chicago Center
11:28 40.3633 -88.0714 89° East 492 566 37,000  Level Chicago Center
11:29 40.3636 -87.8956 90° East 488 562 37,000  Level Chicago Center
11:30 40.3628 -87.7192 90° East 488 562 37,000  Level Chicago Center
11:31 40.3508 -87.5425 95° East 489 563 37,000  Level Chicago Center
11:32 40.3375 -87.3383 95° East 486 559 37,000  Level Chicago Center
11:33 40.3411 -87.1603 88° East 488 562 37,000  Level Chicago Center
11:34 40.3406 -86.9811 90° East 491 565 37,000  Level Chicago Center
11:35 40.3397 -86.8039 90° East 489 563 37,000  Level Chicago Center
11:36 40.3381 -86.6261 91° East 488 562 37,000  Level Chicago Center
11:37 40.3367 -86.4475 91° East 489 563 37,000  Level Chicago Center
11:38 40.3353 -86.2700 91° East 487 560 37,000  Level Chicago Center
11:40 40.3331 -86.0908 91° East 490 564 37,000  Level Chicago Center
11:41 40.3303 -85.8778 91° East 487 560 37,000  Level Chicago Center
11:42 40.3272 -85.7006 91° East 487 560 37,000  Level Chicago Center
11:43 40.3247 -85.5250 91° East 483 556 37,000  Level Chicago Center
11:44 40.3219 -85.3497 91° East 482 555 37,000  Level Chicago Center
11:45 40.3167 -85.1369 92° East 486 559 37,000  Level Indianapolis Center
11:46 40.3133 -84.9608 91° East 486 559 37,000  Level Indianapolis Center
11:47 40.3097 -84.7692 91° East 490 564 37,000  Level Indianapolis Center
11:48 40.3042 -84.5928 92° East 487 560 37,000  Level Indianapolis Center
11:49 40.2992 -84.4147 92° East 485 558 37,000  Level Indianapolis Center
11:50 40.2947 -84.2369 92° East 488 562 37,000  Level Indianapolis Center
11:51 40.2892 -84.0589 92° East 486 559 37,000  Level Indianapolis Center
11:52 40.2931 -83.8811 88° East 488 562 37,000  Level Indianapolis Center
11:53 40.2978 -83.7025 88° East 488 562 37,000  Level Indianapolis Center
11:54 40.3025 -83.5231 88° East 488 562 37,000  Level Indianapolis Center
11:55 40.3064 -83.3431 88° East 490 564 37,000  Level Indianapolis Center
11:56 40.3092 -83.1642 89° East 488 562 37,000  Level Indianapolis Center
11:57 40.3133 -82.9861 88° East 486 559 37,000  Level Indianapolis Center
11:58 40.3164 -82.8117 89° East 482 555 37,000  Level Indianapolis Center
11:59 40.3192 -82.6042 89° East 485 558 37,000  Level Indianapolis Center
12:01 40.3247 -82.2478 89° East 486 559 37,000  Level Indianapolis Center
12:02 40.3267 -82.0678 89° East 490 564 37,000  Level Indianapolis Center
12:03 40.3281 -81.8897 89° East 488 562 37,000  Level Indianapolis Center
12:04 40.3300 -81.7094 89° East 491 565 37,000  Level Indianapolis Center
12:05 40.3306 -81.5281 90° East 494 568 37,000  Level Indianapolis Center
12:06 40.3317 -81.3478 89° East 494 568 37,000  Level Indianapolis Center
12:07 40.3328 -81.1667 89° East 494 568 37,000  Level Indianapolis Center
12:08 40.3350 -81.0625 88° East 490 564 37,000  Level Cleveland Center
12:09 40.3356 -80.8853 90° East 490 564 37,000  Level Cleveland Center
12:10 40.3361 -80.7056 90° East 495 570 37,000  Level Cleveland Center
12:11 40.3339 -80.5286 91° East 495 570 37,000  Level Cleveland Center
12:12 40.3275 -80.3325 92° East 490 564 37,000  Level Cleveland Center
12:13 40.3311 -80.1528 88° East 490 564 37,000  Level Cleveland Center
12:14 40.3303 -79.9647 90° East 495 570 37,000  Level Cleveland Center
12:15 40.3292 -79.7850 90° East 495 570 37,000  Level Cleveland Center
12:16 40.3278 -79.6056 91° East 495 570 37,000  Level Cleveland Center
12:17 40.3261 -79.4203 91° East 495 570 37,000  Level Cleveland Center
12:18 40.3222 -79.2569 92° East 495 570 37,000  Level Cleveland Center
12:19 40.3178 -79.0719 92° East 495 570 37,000 -180 Level Cleveland Center
12:20 40.3153 -78.8894 91° East 495 570 36,700 -1,440 Descending Cleveland Center
12:21 40.3144 -78.7017 90° East 495 570 34,200 -2,640 Descending Cleveland Center
12:22 40.3153 -78.5108 90° East 505 581 31,500 -2,700 Descending Cleveland Center
12:23 40.3139 -78.3311 91° East 505 581 28,800 -2,700 Descending Cleveland Center
12:24 40.3122 -78.1517 91° East 495 570 26,100 -1,380 Descending Cleveland Center
12:26 40.3114 -77.7533 90° East 461 531 24,400 -900 Descending New York Center
12:27 40.3086 -77.5869 91° East 461 531 23,300 -1,140 Descending New York Center
12:28 40.3081 -77.4125 90° East 461 531 22,200 -1,140 Descending New York Center
12:29 40.3031 -77.2406 92° East 467 537 21,100 -1,140 Descending New York Center
12:30 40.2997 -77.0686 91° East 467 537 20,000 -600 Descending New York Center
12:31 40.2644 -76.9078 106° East 461 531 20,000 -540 Level New York Center
12:32 40.2325 -76.7608 106° East 461 531 19,000 -1,860 Descending New York Center
12:33 40.1928 -76.5942 107° East 447 514 16,400 -2,400 Descending New York Center
12:34 40.1567 -76.4392 107° East 441 507 14,300 -1,920 Descending New York Center
12:35 40.1289 -76.3228 107° East 429 494 12,600 -1,800 Descending New York Center
12:36 40.1131 -76.1694 98° East 401 461 10,700 -1,620 Descending New York Center
12:37 40.1042 -76.0411 95° East 339 390 9,400 -1,560 Descending New York Center
12:38 40.0964 -75.9322 95° East 309 356 7,600 -1,680 Descending New York Center
12:39 40.0842 -75.8308 99° East 309 356 6,100 -780 Descending New York Center
12:40 40.0850 -75.7142 89° East 302 348 6,100 -120 Level New York Center
12:41 40.0867 -75.6219 89° East 290 334 5,900 -600 Descending New York Center
12:42 40.0872 -75.5081 90° East 285 328 5,000 -900 Descending New York Center
12:43 40.0892 -75.4078 89° East 280 322 4,200 -480 Descending New York Center
12:44 40.0889 -75.3075 90° East 280 322 4,100 -120 Descending New York Center
12:45 40.0644 -75.2381 115° Southeast 251 289 4,000  Descending New York Center
12:46 40.0114 -75.2075 156° South 195 224 4,100  Climbing New York Center
12:47 39.9581 -75.1850 162° South 205 236 4,100  Level New York Center
12:48 39.9047 -75.1600 160° South 205 236 4,100 -240 Level New York Center
12:49 39.8594 -75.1411 162° South 200 230 3,700 -1,140 Descending New York Center
12:50 39.8333 -75.1833 231° Southwest 136 157 1,500 -1,320 Descending Philadelphia TRACON
12:51 39.8500 -75.2167 303° West 152 175 700 -840 Descending Philadelphia TRACON
12:53 39.8667 -75.2333 311° West  Level FlightAware Approximate
13:00 39.8722 -75.2409 311° West  Level Estimated